Time;durP1;ratioP1;P1;durP2;ratioP2;P2;SDS_P1;SDS_P2;PMS_P1;PMS_P2;Temp;Humidity;BMP_temperature;BMP_pressure;BME280_temperature;BME280_humidity;BME280_pressure;Samples;Min_cycle;Max_cycle;Signal;HPM_P1;HPM_P2
2023/09/18 00:02:06;;;;;;;21.30;11.98;;;;;;;28.20;53.04;100632.69;5008429;28;20067;-70
2023/09/18 00:04:32;;;;;;;20.52;11.77;;;;;;;28.65;52.15;100626.09;5009546;28;20083;-70
2023/09/18 00:06:57;;;;;;;19.27;10.95;;;;;;;28.48;52.25;100630.28;5008214;28;20025;-70
2023/09/18 00:09:23;;;;;;;23.42;12.68;;;;;;;28.60;51.94;100629.19;5009290;28;20022;-70
2023/09/18 00:11:48;;;;;;;21.60;12.13;;;;;;;28.79;51.48;100622.16;4992655;28;20478;-70
2023/09/18 00:14:13;;;;;;;21.63;11.20;;;;;;;28.85;51.58;100616.22;5008269;28;20040;-71
2023/09/18 00:16:39;;;;;;;19.63;10.55;;;;;;;28.35;52.44;100616.22;4992895;28;20029;-70
2023/09/18 00:19:07;;;;;;;21.95;12.38;;;;;;;28.54;52.03;100618.97;5009954;28;20026;-70
2023/09/18 00:21:32;;;;;;;19.92;11.82;;;;;;;28.46;52.34;100609.88;5009409;28;20116;-71
2023/09/18 00:23:58;;;;;;;19.88;11.30;;;;;;;28.65;51.90;100593.00;4989113;28;20145;-70
2023/09/18 00:26:25;;;;;;;19.65;11.73;;;;;;;28.75;51.75;100593.84;4990929;28;20494;-71
2023/09/18 00:28:51;;;;;;;18.38;10.48;;;;;;;28.82;51.29;100592.28;4989997;28;20459;-70
2023/09/18 00:31:16;;;;;;;24.13;12.80;;;;;;;28.97;50.82;100575.75;4973183;28;20601;-71
2023/09/18 00:33:42;;;;;;;19.05;10.82;;;;;;;28.40;52.39;100585.25;4990853;28;20034;-70
2023/09/18 00:36:07;;;;;;;19.17;11.05;;;;;;;28.78;51.80;100593.56;4971931;28;20095;-70
2023/09/18 00:38:32;;;;;;;20.90;11.82;;;;;;;29.02;51.66;100581.56;4973317;28;20065;-70
2023/09/18 00:40:58;;;;;;;25.10;12.20;;;;;;;29.00;51.68;100570.06;4972511;28;20030;-70
2023/09/18 00:43:23;;;;;;;17.30;10.60;;;;;;;28.80;51.97;100556.63;4972459;28;20037;-70
2023/09/18 00:45:49;;;;;;;19.27;11.80;;;;;;;28.51;52.83;100554.72;4989244;28;20022;-70
2023/09/18 00:48:16;;;;;;;17.77;11.40;;;;;;;28.55;52.75;100540.03;4988720;28;20049;-70
2023/09/18 00:50:44;;;;;;;17.67;11.18;;;;;;;28.84;52.39;100523.09;4972058;28;20030;-70
2023/09/18 00:53:13;;;;;;;18.23;10.65;;;;;;;28.55;53.16;100518.53;4988525;28;20041;-70
2023/09/18 00:55:39;;;;;;;19.98;11.82;;;;;;;28.93;51.70;100495.34;4989034;28;20125;-70
2023/09/18 00:58:05;;;;;;;19.55;12.02;;;;;;;28.88;51.94;100491.38;4987910;28;20157;-70
2023/09/18 01:00:31;;;;;;;16.50;10.93;;;;;;;28.92;51.74;100493.66;4972934;28;20057;-70
2023/09/18 01:02:56;;;;;;;19.20;11.18;;;;;;;29.04;51.12;100498.84;4990005;28;20105;-70
2023/09/18 01:05:21;;;;;;;20.70;12.63;;;;;;;28.53;52.98;100488.22;4972009;28;20521;-70
2023/09/18 01:07:47;;;;;;;17.45;11.55;;;;;;;28.42;53.83;100485.69;4972978;28;20471;-70
2023/09/18 01:10:16;;;;;;;18.27;11.93;;;;;;;28.67;52.78;100480.78;4988977;28;20053;-70
2023/09/18 01:13:26;;;;;;;20.48;11.43;;;;;;;28.86;52.08;100482.59;4988855;28;20130;-70
2023/09/18 01:15:57;;;;;;;17.65;11.00;;;;;;;28.64;52.41;100467.63;4967046;28;20495;-70
2023/09/18 01:18:23;;;;;;;23.80;12.32;;;;;;;29.20;50.84;100480.28;4971895;28;20038;-70
2023/09/18 01:20:48;;;;;;;18.85;11.95;;;;;;;28.88;52.17;100481.47;4990177;28;20360;-70
2023/09/18 01:23:14;;;;;;;21.02;10.90;;;;;;;28.60;52.87;100489.38;4988436;28;20093;-70
2023/09/18 01:25:39;;;;;;;20.20;11.95;;;;;;;28.52;53.31;100502.69;4971977;28;20061;-70
2023/09/18 01:28:05;;;;;;;19.63;12.90;;;;;;;28.49;53.32;100486.81;4989896;28;20034;-70
2023/09/18 01:30:30;;;;;;;19.85;11.93;;;;;;;28.40;53.44;100498.41;4988592;28;20368;-70
2023/09/18 01:32:57;;;;;;;19.70;11.05;;;;;;;28.06;54.23;100491.56;4971393;28;20094;-70
2023/09/18 01:35:29;;;;;;;19.48;11.80;;;;;;;28.14;55.04;100488.19;4990153;28;20037;-70
2023/09/18 01:37:56;;;;;;;22.33;12.25;;;;;;;28.55;53.07;100480.03;4989909;28;20066;-70
2023/09/18 01:40:24;;;;;;;17.85;11.50;;;;;;;28.21;53.97;100481.28;4971727;28;20026;-70
2023/09/18 01:42:49;;;;;;;18.75;11.80;;;;;;;28.51;53.39;100468.72;4988768;28;20026;-70
2023/09/18 01:45:15;;;;;;;27.15;12.90;;;;;;;28.98;51.96;100476.09;4989584;28;20028;-70
2023/09/18 01:47:40;;;;;;;18.40;11.35;;;;;;;28.96;52.25;100469.13;4987852;28;20040;-70
2023/09/18 01:50:06;;;;;;;20.38;12.18;;;;;;;28.78;52.88;100464.47;4971924;28;20450;-70
2023/09/18 01:52:31;;;;;;;22.90;12.05;;;;;;;28.94;52.30;100459.38;4973364;28;20486;-70
2023/09/18 01:54:57;;;;;;;19.92;11.38;;;;;;;29.00;52.13;100470.56;4975521;28;20045;-70
2023/09/18 01:57:23;;;;;;;23.70;12.18;;;;;;;28.32;54.46;100479.47;4993612;28;20053;-70
2023/09/18 01:59:48;;;;;;;16.80;10.93;;;;;;;29.01;51.85;100491.09;4991354;28;20038;-70
2023/09/18 02:02:13;;;;;;;16.83;11.07;;;;;;;27.86;55.41;100490.63;4993109;28;20489;-70
2023/09/18 02:04:39;;;;;;;19.73;10.75;;;;;;;28.82;52.99;100482.03;4991943;28;20039;-70
2023/09/18 02:07:05;;;;;;;17.63;11.57;;;;;;;28.52;53.07;100502.69;4990977;28;20125;-70
2023/09/18 02:09:30;;;;;;;20.15;12.07;;;;;;;28.96;52.40;100493.34;4975324;28;20022;-70
2023/09/18 02:11:56;;;;;;;17.33;10.65;;;;;;;28.48;53.79;100490.50;4991376;28;20041;-70
2023/09/18 02:14:22;;;;;;;18.45;11.70;;;;;;;28.09;54.63;100495.81;4975164;28;20137;-70
2023/09/18 02:16:49;;;;;;;19.65;12.93;;;;;;;28.65;53.29;100496.22;4991809;28;20093;-70
2023/09/18 02:19:14;;;;;;;17.52;10.60;;;;;;;28.48;53.52;100495.00;4991260;28;20026;-70
2023/09/18 02:21:41;;;;;;;22.40;12.27;;;;;;;28.87;52.90;100490.53;4992266;28;20100;-70
2023/09/18 02:24:06;;;;;;;20.38;11.75;;;;;;;28.55;53.92;100491.63;5009371;28;20085;-70
2023/09/18 02:26:32;;;;;;;18.08;12.07;;;;;;;28.07;55.47;100481.69;5012468;28;20457;-70
2023/09/18 02:29:05;;;;;;;18.05;11.82;;;;;;;28.55;54.08;100475.50;5010045;28;20034;-70
2023/09/18 02:31:30;;;;;;;17.60;11.15;;;;;;;28.69;53.80;100465.38;4994220;28;20553;-70
2023/09/18 02:33:56;;;;;;;21.90;12.50;;;;;;;28.76;53.16;100455.72;5010582;28;20124;-70
2023/09/18 02:36:21;;;;;;;21.35;12.23;;;;;;;28.89;52.69;100456.28;5010396;28;20025;-70
2023/09/18 02:38:47;;;;;;;18.17;11.32;;;;;;;28.42;53.87;100437.31;5010872;28;20367;-70
2023/09/18 02:41:12;;;;;;;19.45;11.25;;;;;;;28.63;53.34;100428.25;5010320;28;20033;-70
2023/09/18 02:43:37;;;;;;;19.73;11.68;;;;;;;28.04;55.22;100428.22;5010304;28;20033;-70
2023/09/18 02:46:05;;;;;;;18.40;11.65;;;;;;;28.20;54.69;100420.47;5011768;28;20060;-69
2023/09/18 02:48:30;;;;;;;16.92;11.07;;;;;;;28.51;54.38;100393.47;5011837;28;20109;-69
2023/09/18 02:50:55;;;;;;;19.48;11.77;;;;;;;28.81;53.41;100383.56;5009586;28;20036;-70
2023/09/18 02:53:23;;;;;;;18.08;11.45;;;;;;;29.19;51.74;100384.41;5010725;28;20125;-70
2023/09/18 02:55:58;;;;;;;17.27;11.15;;;;;;;29.07;52.03;100373.00;5011164;28;20382;-69
2023/09/18 02:58:25;;;;;;;18.65;11.40;;;;;;;29.08;51.95;100363.06;5011986;28;20462;-70
2023/09/18 03:00:53;;;;;;;19.45;11.93;;;;;;;28.95;52.43;100341.91;5009745;28;20026;-68
2023/09/18 03:03:19;;;;;;;18.70;11.77;;;;;;;28.33;53.58;100354.84;5010321;28;20033;-70
2023/09/18 03:05:44;;;;;;;17.70;11.32;;;;;;;28.38;54.42;100368.72;5010078;28;20030;-70
2023/09/18 03:08:15;;;;;;;23.70;10.82;;;;;;;28.59;53.48;100358.66;4993271;28;20100;-70
2023/09/18 03:10:41;;;;;;;18.17;10.65;;;;;;;29.14;52.41;100353.56;4993226;28;20034;-70
2023/09/18 03:13:08;;;;;;;21.63;12.02;;;;;;;28.79;52.73;100330.91;4993272;28;20036;-70
2023/09/18 03:15:34;;;;;;;21.85;11.73;;;;;;;28.66;53.11;100341.97;4993731;28;20045;-70
2023/09/18 03:18:00;;;;;;;20.40;11.48;;;;;;;29.02;52.61;100352.91;4992641;28;20028;-70
2023/09/18 03:20:27;;;;;;;16.67;10.52;;;;;;;28.98;52.47;100363.09;4993823;28;20030;-70
2023/09/18 03:22:55;;;;;;;19.95;11.70;;;;;;;28.38;54.49;100376.78;5010840;28;20052;-70
2023/09/18 03:25:21;;;;;;;17.80;11.18;;;;;;;28.32;55.11;100386.25;4992974;28;20055;-70
2023/09/18 03:27:47;;;;;;;19.98;12.00;;;;;;;28.07;55.51;100398.41;5011330;28;20537;-70
2023/09/18 03:30:15;;;;;;;17.35;10.75;;;;;;;27.80;57.17;100396.34;5009380;28;20026;-69
2023/09/18 03:32:43;;;;;;;18.65;11.10;;;;;;;27.89;56.64;100384.75;5010211;28;20025;-69
2023/09/18 03:35:19;;;;;;;17.88;10.43;;;;;;;27.69;57.04;100390.09;4993144;28;20045;-69
2023/09/18 03:37:45;;;;;;;14.45;9.38;;;;;;;27.06;60.62;100395.59;5011274;28;20101;-68
2023/09/18 03:40:11;;;;;;;18.08;9.82;;;;;;;27.26;60.27;100386.66;5009961;28;20373;-68
2023/09/18 03:42:37;;;;;;;15.10;9.48;;;;;;;27.01;63.43;100397.84;4993270;28;20490;-67
2023/09/18 03:45:05;;;;;;;12.43;7.47;;;;;;;26.57;66.03;100411.34;4992246;28;20041;-67
2023/09/18 03:47:30;;;;;;;14.15;8.35;;;;;;;26.86;66.20;100394.63;5010999;28;20026;-68
2023/09/18 03:49:55;;;;;;;13.10;7.43;;;;;;;28.00;61.11;100386.50;4992619;28;20385;-68
2023/09/18 03:52:21;;;;;;;15.02;8.20;;;;;;;27.70;62.79;100389.13;5010047;28;20088;-68
2023/09/18 03:54:46;;;;;;;16.08;8.07;;;;;;;27.33;63.40;100402.25;4993032;28;20030;-67
2023/09/18 03:57:12;;;;;;;11.10;6.70;;;;;;;27.50;64.30;100398.94;4992351;28;20025;-68
2023/09/18 03:59:37;;;;;;;13.10;7.18;;;;;;;26.36;71.19;100400.59;5010216;28;20088;-68
2023/09/18 04:02:03;;;;;;;11.65;6.15;;;;;;;26.06;72.22;100388.78;5008799;28;20061;-68
2023/09/18 04:04:28;;;;;;;13.48;7.28;;;;;;;26.35;71.15;100372.09;4992946;28;20037;-68
2023/09/18 04:06:54;;;;;;;9.07;5.28;;;;;;;25.89;75.19;100358.84;4991625;28;20033;-68
2023/09/18 04:09:19;;;;;;;6.20;4.10;;;;;;;27.15;67.03;100330.44;5010414;28;20493;-68
2023/09/18 04:11:45;;;;;;;7.57;3.95;;;;;;;26.64;68.23;100317.88;5010448;28;20026;-69
2023/09/18 04:14:10;;;;;;;8.48;3.75;;;;;;;27.09;67.43;100305.03;4991618;28;20363;-68
2023/09/18 04:16:36;;;;;;;5.85;3.58;;;;;;;27.80;64.43;100297.00;4992486;28;20029;-68
2023/09/18 04:19:02;;;;;;;8.27;3.78;;;;;;;27.14;65.22;100288.50;5009951;28;20036;-68
2023/09/18 04:21:29;;;;;;;5.35;3.45;;;;;;;27.46;65.39;100278.59;4992049;28;20030;-68
2023/09/18 04:23:57;;;;;;;4.47;3.13;;;;;;;27.46;65.11;100274.06;4988580;28;20634;-68
2023/09/18 04:26:23;;;;;;;9.88;4.00;;;;;;;27.73;62.85;100272.56;4973033;28;20104;-68
2023/09/18 04:28:49;;;;;;;7.70;3.88;;;;;;;26.57;68.25;100278.22;4990138;28;20093;-67
2023/09/18 04:31:14;;;;;;;5.55;3.80;;;;;;;26.96;68.07;100282.94;4972527;28;20034;-68
2023/09/18 04:33:39;;;;;;;9.18;3.95;;;;;;;28.01;62.47;100278.09;4989320;28;20034;-68
2023/09/18 04:36:05;;;;;;;10.10;4.55;;;;;;;27.11;67.46;100285.25;4971736;28;20475;-68
2023/09/18 04:38:30;;;;;;;7.75;4.50;;;;;;;27.09;68.85;100288.06;4990661;28;20038;-68
2023/09/18 04:41:00;;;;;;;7.55;4.50;;;;;;;27.37;64.95;100296.38;4972566;28;20030;-68
2023/09/18 04:43:25;;;;;;;7.55;4.07;;;;;;;27.39;65.26;100289.88;4971994;28;20030;-67
2023/09/18 04:45:51;;;;;;;10.15;4.65;;;;;;;27.21;66.30;100296.88;4989946;28;20156;-67
2023/09/18 04:48:16;;;;;;;6.43;3.17;;;;;;;26.49;71.19;100299.47;4989671;28;20042;-68
2023/09/18 04:50:43;;;;;;;9.82;4.15;;;;;;;26.11;73.66;100292.00;4972674;28;20054;-68
2023/09/18 04:53:08;;;;;;;6.35;4.00;;;;;;;25.75;75.76;100297.59;4989785;28;20022;-68
2023/09/18 04:55:34;;;;;;;6.13;4.28;;;;;;;26.37;72.79;100287.13;4971805;28;20081;-68
2023/09/18 04:57:59;;;;;;;5.20;4.18;;;;;;;26.97;70.21;100276.59;4972368;28;20105;-68
2023/09/18 05:00:26;;;;;;;5.45;3.60;;;;;;;26.92;70.50;100277.00;4972586;28;20395;-67
2023/09/18 05:02:52;;;;;;;9.13;3.90;;;;;;;25.68;75.97;100283.03;4971329;28;20080;-67
2023/09/18 05:05:18;;;;;;;6.10;4.03;;;;;;;25.73;75.89;100272.78;4972603;28;20038;-68
2023/09/18 05:07:43;;;;;;;7.80;4.38;;;;;;;27.17;68.88;100258.72;4988809;28;20023;-68
2023/09/18 05:10:09;;;;;;;6.20;4.40;;;;;;;27.23;68.10;100252.81;4987258;28;20565;-67
2023/09/18 05:12:35;;;;;;;8.57;4.75;;;;;;;27.48;65.37;100255.16;4990018;28;20034;-68
2023/09/18 05:15:00;;;;;;;6.47;4.15;;;;;;;26.55;72.68;100247.19;4972108;28;20513;-68
2023/09/18 05:17:47;;;;;;;7.97;4.20;;;;;;;26.28;72.68;100261.13;4989488;28;20034;-68
2023/09/18 05:20:15;;;;;;;7.75;4.85;;;;;;;27.29;66.00;100245.22;4972015;28;20092;-68
2023/09/18 05:22:42;;;;;;;5.57;3.95;;;;;;;27.10;68.15;100249.53;4977497;28;20042;-68
2023/09/18 05:25:09;;;;;;;7.70;4.18;;;;;;;26.64;69.18;100250.88;4990386;28;20032;-68
2023/09/18 05:27:36;;;;;;;6.75;4.72;;;;;;;26.30;71.44;100256.50;4993495;28;20032;-68
2023/09/18 05:30:01;;;;;;;7.38;4.15;;;;;;;26.13;71.91;100274.84;5012963;28;20033;-68
2023/09/18 05:32:27;;;;;;;8.38;4.50;;;;;;;27.04;68.99;100266.19;5012407;28;20055;-69
2023/09/18 05:34:52;;;;;;;10.40;4.75;;;;;;;28.22;61.00;100261.81;5012894;28;20026;-69
2023/09/18 05:37:17;;;;;;;7.00;4.70;;;;;;;27.11;66.77;100259.28;5013170;28;20029;-69
2023/09/18 05:39:43;;;;;;;8.38;4.63;;;;;;;27.32;66.31;100258.34;5012484;28;20466;-69
2023/09/18 05:42:08;;;;;;;11.40;5.28;;;;;;;26.37;73.95;100276.41;5011458;28;20037;-69
2023/09/18 05:44:33;;;;;;;8.02;4.97;;;;;;;26.54;69.70;100262.41;4994485;28;20465;-68
2023/09/18 05:46:59;;;;;;;7.40;4.20;;;;;;;26.53;71.63;100252.66;5012526;28;20033;-68
2023/09/18 05:49:24;;;;;;;9.88;5.57;;;;;;;26.33;72.91;100243.66;5012642;28;20022;-68
2023/09/18 05:51:50;;;;;;;8.25;5.18;;;;;;;27.09;66.86;100242.47;4994592;28;20034;-68
2023/09/18 05:54:16;;;;;;;7.32;4.10;;;;;;;26.77;68.56;100259.59;5011562;28;20022;-68
2023/09/18 05:56:41;;;;;;;8.70;4.72;;;;;;;26.99;67.01;100263.06;5011427;28;20042;-68
2023/09/18 05:59:07;;;;;;;9.00;5.03;;;;;;;27.46;66.20;100262.50;4994043;28;20022;-68
2023/09/18 06:01:32;;;;;;;8.40;4.70;;;;;;;26.52;70.08;100264.38;5012664;28;20474;-68
2023/09/18 06:03:58;;;;;;;7.72;4.88;;;;;;;26.55;69.41;100264.09;5012282;28;20026;-68
2023/09/18 06:06:24;;;;;;;11.48;4.38;;;;;;;26.43;69.79;100275.88;4994228;28;20478;-68
2023/09/18 06:08:53;;;;;;;8.32;4.18;;;;;;;26.13;71.99;100274.84;5012727;28;20029;-68
2023/09/18 06:11:19;;;;;;;7.82;4.40;;;;;;;25.88;75.76;100276.00;5012555;28;20025;-68
2023/09/18 06:13:44;;;;;;;6.43;4.47;;;;;;;26.42;72.72;100268.84;5011685;28;20045;-68
2023/09/18 06:16:10;;;;;;;8.73;4.28;;;;;;;25.54;74.64;100278.78;4994654;28;20092;-68
2023/09/18 06:18:38;;;;;;;8.45;5.15;;;;;;;25.55;76.27;100283.16;5010902;28;20084;-68
2023/09/18 06:21:04;;;;;;;15.60;4.53;;;;;;;25.67;77.49;100290.19;5011263;28;20025;-68
2023/09/18 06:23:29;;;;;;;7.75;4.53;;;;;;;26.51;73.58;100284.09;5011830;28;20129;-68
2023/09/18 06:25:56;;;;;;;7.75;4.80;;;;;;;26.09;74.78;100278.75;4994243;28;20109;-68
2023/09/18 06:28:22;;;;;;;6.57;4.22;;;;;;;26.65;70.41;100269.50;5011500;28;20061;-68
2023/09/18 06:30:48;;;;;;;7.90;4.28;;;;;;;26.70;69.93;100269.16;4994394;28;20064;-68
2023/09/18 06:33:13;;;;;;;8.00;4.75;;;;;;;25.80;75.90;100276.66;4993898;28;20053;-67
2023/09/18 06:35:39;;;;;;;6.65;4.03;;;;;;;25.77;73.22;100292.94;5011412;28;20029;-68
2023/09/18 06:38:06;;;;;;;7.13;4.40;;;;;;;25.71;75.06;100285.44;5010153;28;20034;-68
2023/09/18 06:40:32;;;;;;;5.97;3.47;;;;;;;26.21;72.48;100280.41;5012120;28;20034;-68
2023/09/18 06:43:00;;;;;;;7.38;4.50;;;;;;;27.18;68.64;100281.88;4992958;28;20026;-68
2023/09/18 06:45:27;;;;;;;7.00;3.50;;;;;;;26.99;67.79;100273.78;4993835;28;20075;-69
2023/09/18 06:47:53;;;;;;;7.28;4.13;;;;;;;26.63;67.48;100276.00;4992988;28;20049;-68
2023/09/18 06:50:18;;;;;;;5.70;3.65;;;;;;;26.35;71.66;100275.66;5011761;28;20072;-68
2023/09/18 06:52:44;;;;;;;6.40;4.00;;;;;;;25.31;77.04;100281.50;5010650;28;20398;-68
2023/09/18 06:55:09;;;;;;;7.53;3.78;;;;;;;26.02;73.83;100288.25;4992973;28;20053;-68
2023/09/18 06:57:35;;;;;;;6.75;4.03;;;;;;;25.38;76.91;100290.75;5011486;28;20442;-68
2023/09/18 07:00:00;;;;;;;6.70;3.70;;;;;;;25.30;79.47;100295.00;5011200;28;20022;-68
2023/09/18 07:02:27;;;;;;;5.60;3.85;;;;;;;26.45;71.41;100283.78;5009625;28;20560;-69
2023/09/18 07:04:52;;;;;;;6.47;3.42;;;;;;;25.45;73.45;100285.75;5011272;28;20109;-68
2023/09/18 07:07:24;;;;;;;3.78;2.80;;;;;;;25.30;73.65;100285.13;5011585;28;20028;-68
2023/09/18 07:09:51;;;;;;;6.38;3.00;;;;;;;25.97;70.82;100287.78;4993229;28;20232;-68
2023/09/18 07:12:19;;;;;;;5.80;2.92;;;;;;;25.94;70.13;100282.66;4994001;28;20068;-69
2023/09/18 07:14:45;;;;;;;4.55;2.60;;;;;;;25.93;69.77;100287.19;5011381;28;20105;-68
2023/09/18 07:17:11;;;;;;;4.05;2.55;;;;;;;25.36;74.89;100286.50;4992439;28;20034;-68
2023/09/18 07:19:36;;;;;;;4.10;2.90;;;;;;;25.28;73.39;100291.56;4993927;28;20493;-68
2023/09/18 07:22:02;;;;;;;6.07;2.53;;;;;;;25.98;71.06;100294.81;4992653;28;20469;-68
2023/09/18 07:24:27;;;;;;;6.20;2.78;;;;;;;25.91;70.94;100292.66;5010570;28;20034;-68
2023/09/18 07:26:53;;;;;;;3.70;2.60;;;;;;;25.50;72.04;100294.25;5009318;28;20022;-68
2023/09/18 07:29:18;;;;;;;3.40;2.40;;;;;;;25.28;72.83;100299.59;4993580;28;20036;-68
2023/09/18 07:31:44;;;;;;;4.43;2.53;;;;;;;26.92;65.49;100298.44;5010301;28;20030;-68
2023/09/18 07:34:10;;;;;;;3.28;2.13;;;;;;;26.46;66.39;100302.41;5009618;28;20026;-68
2023/09/18 07:36:36;;;;;;;2.97;2.33;;;;;;;26.17;68.57;100297.72;4993159;28;20609;-68
2023/09/18 07:39:02;;;;;;;4.53;2.67;;;;;;;25.82;72.46;100314.84;5009916;28;20088;-68
2023/09/18 07:41:27;;;;;;;4.15;2.47;;;;;;;26.30;67.82;100302.88;5009860;28;20033;-68
2023/09/18 07:43:53;;;;;;;5.07;3.13;;;;;;;25.89;70.11;100317.88;5009126;28;20032;-68
2023/09/18 07:46:18;;;;;;;4.40;2.80;;;;;;;26.23;69.34;100323.97;4992648;28;20474;-68
2023/09/18 07:48:44;;;;;;;4.93;2.70;;;;;;;26.33;67.59;100320.50;5009411;28;20025;-68
2023/09/18 07:51:12;;;;;;;2.95;2.45;;;;;;;26.50;67.62;100324.41;5007519;28;20121;-68
2023/09/18 07:53:39;;;;;;;7.10;2.95;;;;;;;26.64;66.42;100325.91;4993197;28;20045;-69
2023/09/18 07:56:04;;;;;;;7.55;2.42;;;;;;;26.09;68.86;100332.31;5010237;28;20061;-68
2023/09/18 07:58:33;;;;;;;4.70;2.50;;;;;;;27.11;63.59;100329.03;4992234;28;20049;-68
2023/09/18 08:00:59;;;;;;;3.45;2.53;;;;;;;25.85;68.24;100346.69;4992319;28;20064;-68
2023/09/18 08:03:28;;;;;;;2.90;2.55;;;;;;;25.50;71.47;100347.75;5008995;28;20053;-68
2023/09/18 08:05:53;;;;;;;5.25;2.47;;;;;;;25.95;70.25;100351.31;5009280;28;20026;-68
2023/09/18 08:08:20;;;;;;;4.93;2.80;;;;;;;25.20;72.51;100345.69;4992765;28;20092;-68
2023/09/18 08:10:54;;;;;;;4.30;2.50;;;;;;;26.80;67.19;100347.75;5010369;28;20033;-68
2023/09/18 08:13:22;;;;;;;4.13;3.10;;;;;;;26.50;66.56;100344.03;5008175;28;20032;-68
2023/09/18 08:15:48;;;;;;;5.30;3.72;;;;;;;26.33;66.23;100349.97;4992573;28;20030;-68
2023/09/18 08:18:14;;;;;;;5.82;3.72;;;;;;;26.66;66.02;100348.09;5009804;28;20029;-68
2023/09/18 08:20:45;;;;;;;4.18;2.90;;;;;;;26.93;64.51;100358.28;5009454;28;20052;-68
2023/09/18 08:23:11;;;;;;;6.32;2.78;;;;;;;26.73;65.55;100351.97;4988577;28;20104;-68
2023/09/18 08:25:36;;;;;;;6.32;3.08;;;;;;;26.64;66.04;100358.06;4989261;28;20037;-68
2023/09/18 08:28:03;;;;;;;5.57;3.25;;;;;;;26.90;64.40;100364.78;4971857;28;20505;-68
2023/09/18 08:30:28;;;;;;;5.93;3.00;;;;;;;27.56;59.41;100366.19;4989109;28;20475;-68
2023/09/18 08:32:53;;;;;;;5.20;3.38;;;;;;;26.73;63.50;100362.69;4990339;28;20022;-68
2023/09/18 08:35:19;;;;;;;3.80;3.22;;;;;;;27.75;59.49;100364.53;4988321;28;20037;-68
2023/09/18 08:37:45;;;;;;;3.53;3.05;;;;;;;27.58;58.61;100364.22;4972877;28;20069;-68
2023/09/18 08:40:13;;;;;;;5.35;3.08;;;;;;;26.37;62.76;100367.50;4988586;28;20022;-68
2023/09/18 08:42:46;;;;;;;4.63;2.97;;;;;;;26.27;64.63;100366.53;4972099;28;20038;-68
2023/09/18 08:45:25;;;;;;;5.05;2.50;;;;;;;27.49;61.11;100370.41;4989941;28;20600;-68
2023/09/18 08:47:53;;;;;;;2.40;2.20;;;;;;;26.62;62.89;100376.97;4971924;28;20030;-68
2023/09/18 08:50:19;;;;;;;3.15;2.40;;;;;;;26.19;64.08;100375.25;4973074;28;20026;-68
2023/09/18 08:52:46;;;;;;;4.03;2.28;;;;;;;26.36;64.53;100377.34;4972542;28;20027;-68
2023/09/18 08:55:13;;;;;;;4.30;2.40;;;;;;;26.59;62.43;100386.13;4989094;28;20042;-68
2023/09/18 08:57:41;;;;;;;4.15;2.25;;;;;;;25.99;65.38;100384.88;4972695;28;20026;-68
2023/09/18 09:00:08;;;;;;;3.47;2.45;;;;;;;27.17;60.51;100384.78;4972298;28;20030;-68
2023/09/18 09:02:34;;;;;;;2.70;2.45;;;;;;;26.73;63.76;100390.31;4992629;28;20108;-68
2023/09/18 09:04:59;;;;;;;3.28;2.38;;;;;;;25.70;67.39;100394.28;4993687;28;20056;-68
2023/09/18 09:07:26;;;;;;;4.22;2.75;;;;;;;26.23;64.19;100398.94;4994345;28;20089;-68
2023/09/18 09:09:51;;;;;;;2.80;2.40;;;;;;;26.28;65.41;100397.72;4992908;28;20123;-68
2023/09/18 09:12:53;;;;;;;5.43;3.42;;;;;;;27.58;59.37;100396.41;4994357;28;20026;-68
2023/09/18 09:15:21;;;;;;;3.92;2.45;;;;;;;26.58;60.01;100418.41;4976301;28;20109;-68
2023/09/18 09:17:46;;;;;;;6.60;2.40;;;;;;;26.88;60.45;100408.78;4993277;28;20076;-68
2023/09/18 09:20:14;;;;;;;5.38;2.95;;;;;;;26.39;61.55;100413.72;4976112;28;20367;-68
2023/09/18 09:22:41;;;;;;;2.45;2.25;;;;;;;27.52;56.61;100396.97;4977349;28;20050;-68
2023/09/18 09:25:27;;;;;;;5.05;2.30;;;;;;;27.34;55.70;100404.78;4992215;28;20394;-68
2023/09/18 09:27:55;;;;;;;2.22;1.83;;;;;;;26.50;56.90;100411.03;4991803;28;20117;-68
2023/09/18 09:30:23;;;;;;;2.35;1.60;;;;;;;26.64;56.91;100417.03;4975615;28;20054;-68
2023/09/18 09:32:53;;;;;;;1.85;1.70;;;;;;;27.06;56.89;100431.31;4992440;28;20038;-67
2023/09/18 09:35:33;;;;;;;2.08;1.88;;;;;;;27.10;57.05;100423.84;4992305;28;20034;-68
2023/09/18 09:38:08;;;;;;;3.67;1.83;;;;;;;26.63;57.79;100431.44;4974744;28;20030;-68
2023/09/18 09:40:35;;;;;;;2.58;1.95;;;;;;;27.57;55.22;100416.22;4993755;28;20033;-68
2023/09/18 09:43:02;;;;;;;1.95;1.80;;;;;;;27.49;54.24;100417.84;4993630;28;20467;-68
2023/09/18 09:45:29;;;;;;;4.32;2.17;;;;;;;27.82;53.61;100422.09;4991395;28;20132;-68
2023/09/18 09:47:56;;;;;;;2.28;2.08;;;;;;;29.36;50.03;100416.94;4993025;28;20080;-69
2023/09/18 09:50:22;;;;;;;2.15;1.92;;;;;;;28.43;52.66;100425.56;4993295;28;20034;-68
2023/09/18 09:52:53;;;;;;;2.10;1.90;;;;;;;25.94;60.45;100446.84;4992804;28;20165;-68
2023/09/18 09:55:30;;;;;;;3.53;2.95;;;;;;;27.05;55.12;100442.16;4991764;28;20033;-68
2023/09/18 09:58:04;;;;;;;2.30;1.83;;;;;;;26.58;57.04;100446.06;4974505;28;20030;-68
2023/09/18 10:00:42;;;;;;;3.40;2.47;;;;;;;27.17;56.15;100430.38;4991781;28;20465;-69
2023/09/18 10:03:09;;;;;;;3.97;2.28;;;;;;;27.35;56.48;100432.47;4991376;28;20080;-68
2023/09/18 10:05:39;;;;;;;3.70;2.40;;;;;;;27.06;55.34;100438.53;4990825;28;20060;-68
2023/09/18 10:08:10;;;;;;;8.45;3.13;;;;;;;27.79;53.40;100430.38;4992728;28;20045;-68
2023/09/18 10:10:46;;;;;;;6.40;2.90;;;;;;;28.19;53.08;100432.22;4975477;28;20053;-68
2023/09/18 10:13:17;;;;;;;4.60;2.35;;;;;;;28.06;52.37;100437.00;4989815;28;20072;-68
2023/09/18 10:15:43;;;;;;;2.90;2.42;;;;;;;27.68;54.73;100431.34;4991655;28;20494;-68
2023/09/18 10:18:28;;;;;;;4.88;2.55;;;;;;;27.70;53.68;100425.88;4992378;28;20055;-68
2023/09/18 10:21:20;;;;;;;5.25;2.47;;;;;;;28.08;51.70;100419.75;4974081;28;20085;-68
2023/09/18 10:24:09;;;;;;;3.45;2.25;;;;;;;28.15;51.47;100419.19;5002439;28;20053;-68
2023/09/18 10:26:47;;;;;;;3.95;2.85;;;;;;;28.25;50.73;100420.91;4993775;28;20036;-68
2023/09/18 10:29:15;;;;;;;2.42;2.03;;;;;;;28.58;49.44;100420.63;4994081;28;20032;-69
2023/09/18 10:31:45;;;;;;;3.28;2.50;;;;;;;27.04;51.13;100429.78;4994232;28;20037;-68
2023/09/18 10:34:12;;;;;;;2.65;2.08;;;;;;;25.98;54.93;100426.00;5010962;28;20041;-69
2023/09/18 10:36:41;;;;;;;2.92;2.55;;;;;;;27.31;52.71;100425.66;5010858;28;20120;-68
2023/09/18 10:39:10;;;;;;;5.63;2.65;;;;;;;27.07;54.15;100424.13;4993908;28;20028;-68
2023/09/18 10:41:36;;;;;;;3.13;2.83;;;;;;;27.69;52.45;100418.78;4993510;28;20504;-68
2023/09/18 10:44:04;;;;;;;2.70;2.50;;;;;;;28.77;49.69;100425.16;5011587;28;20112;-69
2023/09/18 10:46:30;;;;;;;4.47;2.25;;;;;;;28.87;47.90;100420.59;4994333;28;20161;-68
2023/09/18 10:48:56;;;;;;;4.05;2.00;;;;;;;28.35;50.24;100422.75;5009509;28;20037;-68
2023/09/18 10:51:23;;;;;;;3.80;2.10;;;;;;;28.22;49.68;100420.31;5011912;28;20080;-69
2023/09/18 10:53:49;;;;;;;3.95;2.38;;;;;;;28.81;47.09;100415.81;4993983;28;20529;-68
2023/09/18 10:56:19;;;;;;;3.58;2.00;;;;;;;29.40;47.21;100421.03;5010405;28;20164;-69
2023/09/18 10:58:44;;;;;;;3.63;2.08;;;;;;;29.01;47.25;100415.78;4993976;28;20121;-69
2023/09/18 11:01:13;;;;;;;2.92;2.30;;;;;;;29.42;46.83;100417.19;5009307;28;20153;-68
2023/09/18 11:03:40;;;;;;;3.08;2.05;;;;;;;28.63;48.75;100423.75;4994154;28;20463;-69
2023/09/18 11:06:12;;;;;;;2.80;2.35;;;;;;;29.69;47.07;100409.28;5011146;28;20026;-69
2023/09/18 11:08:45;;;;;;;3.25;2.33;;;;;;;28.25;49.46;100418.22;4993212;28;20132;-69
2023/09/18 11:11:14;;;;;;;5.95;2.90;;;;;;;28.17;49.65;100412.69;5011317;28;20358;-68
2023/09/18 11:13:47;;;;;;;5.15;2.55;;;;;;;28.59;48.37;100420.47;5011374;28;20529;-68
2023/09/18 11:16:16;;;;;;;4.75;2.80;;;;;;;29.10;48.06;100414.91;5010144;28;20462;-69
2023/09/18 11:18:41;;;;;;;2.85;2.58;;;;;;;28.58;47.34;100413.41;4993734;28;20065;-69
2023/09/18 11:21:12;;;;;;;3.70;2.35;;;;;;;29.13;46.64;100409.22;4993204;28;20467;-69